createdAt,value
2022-12-04T00:00:11.888Z,1.10
2022-12-04T00:02:35.527Z,1.10
2022-12-04T00:04:59.239Z,1.10
2022-12-04T00:07:22.814Z,1.00
2022-12-04T00:09:46.353Z,1.00
2022-12-04T00:12:11.301Z,1.10
2022-12-04T00:14:49.098Z,1.00
2022-12-04T00:17:18.513Z,1.00
2022-12-04T00:19:42.082Z,1.10
2022-12-04T00:22:05.949Z,1.10
2022-12-04T00:24:29.483Z,1.00
2022-12-04T00:26:53.048Z,1.00
2022-12-04T00:29:18.044Z,1.10
2022-12-04T00:31:42.128Z,1.00
2022-12-04T00:34:08.018Z,1.00
2022-12-04T00:36:32.367Z,1.10
2022-12-04T00:38:56.386Z,1.10
2022-12-04T00:41:22.493Z,1.10
2022-12-04T00:43:46.926Z,1.00
2022-12-04T00:46:11.952Z,1.10
2022-12-04T00:48:35.622Z,1.10
2022-12-04T00:51:04.129Z,1.10
2022-12-04T00:53:27.679Z,1.10
2022-12-04T00:55:51.228Z,1.10
2022-12-04T00:58:15.134Z,1.10
2022-12-04T01:00:41.014Z,1.10
2022-12-04T01:03:07.037Z,1.00
2022-12-04T01:05:30.861Z,1.10
2022-12-04T01:07:55.258Z,1.10
2022-12-04T01:10:19.008Z,1.10
2022-12-04T01:12:42.541Z,1.00
2022-12-04T01:15:07.639Z,1.00
2022-12-04T01:17:31.216Z,1.00
2022-12-04T01:19:56.307Z,1.10
2022-12-04T01:22:19.998Z,1.10
2022-12-04T01:24:43.633Z,1.10
2022-12-04T01:27:07.265Z,1.10
2022-12-04T01:29:30.896Z,1.00
2022-12-04T01:31:54.506Z,1.00
2022-12-04T01:34:18.174Z,1.00
2022-12-04T01:36:43.108Z,1.00
2022-12-04T01:39:06.723Z,1.00
2022-12-04T01:41:33.139Z,1.00
2022-12-04T01:44:16.485Z,1.00
2022-12-04T01:46:40.600Z,1.00
2022-12-04T01:49:06.133Z,1.00
2022-12-04T01:51:35.007Z,1.00
2022-12-04T01:54:03.886Z,1.00
2022-12-04T01:56:33.461Z,1.00
2022-12-04T01:59:00.328Z,1.10
2022-12-04T02:01:24.464Z,1.00
2022-12-04T02:03:48.418Z,1.10
2022-12-04T02:06:12.217Z,1.00
2022-12-04T02:08:37.384Z,1.00
2022-12-04T02:11:15.099Z,1.00
2022-12-04T02:13:48.739Z,1.00
2022-12-04T02:16:21.536Z,1.00
2022-12-04T02:18:58.119Z,1.00
2022-12-04T02:21:28.772Z,1.10
2022-12-04T02:24:15.437Z,1.00
2022-12-04T02:26:48.883Z,1.00
2022-12-04T02:29:25.050Z,1.00
2022-12-04T02:31:55.245Z,1.00
2022-12-04T02:34:26.964Z,1.00
2022-12-04T02:36:56.610Z,1.00
2022-12-04T02:39:27.532Z,1.00
2022-12-04T02:41:58.663Z,1.00
2022-12-04T02:44:28.046Z,1.00
2022-12-04T02:46:57.309Z,1.00
2022-12-04T02:49:26.879Z,1.00
2022-12-04T02:51:51.932Z,1.00
2022-12-04T02:54:24.732Z,1.00
2022-12-04T02:56:51.659Z,1.10
2022-12-04T02:59:24.644Z,1.10
2022-12-04T03:01:53.243Z,1.00
2022-12-04T03:04:21.348Z,1.00
2022-12-04T03:06:48.838Z,1.10
2022-12-04T03:09:18.780Z,1.00
2022-12-04T03:11:46.331Z,1.10
2022-12-04T03:14:16.064Z,1.00
2022-12-04T03:16:42.898Z,1.00
2022-12-04T03:19:12.576Z,1.10
2022-12-04T03:21:41.281Z,1.10
2022-12-04T03:24:14.137Z,1.10
2022-12-04T03:26:42.599Z,1.10
2022-12-04T03:29:11.192Z,1.00
2022-12-04T03:31:52.583Z,1.00
2022-12-04T03:34:25.349Z,1.00
2022-12-04T03:36:55.127Z,1.00
2022-12-04T03:39:23.175Z,1.00
2022-12-04T03:41:58.196Z,1.00
2022-12-04T03:44:27.447Z,1.00
2022-12-04T03:46:57.129Z,1.00
2022-12-04T03:49:30.571Z,1.00
2022-12-04T03:52:00.735Z,1.00
2022-12-04T03:54:31.493Z,1.00
2022-12-04T03:57:00.068Z,1.10
2022-12-04T03:59:28.670Z,1.10
2022-12-04T04:01:55.330Z,1.10
2022-12-04T04:04:25.616Z,1.00
2022-12-04T04:06:55.447Z,1.00
2022-12-04T04:09:26.877Z,1.10
2022-12-04T04:11:55.527Z,1.10
2022-12-04T04:14:42.524Z,1.20
2022-12-04T04:17:34.901Z,1.20
2022-12-04T04:20:27.027Z,1.20
2022-12-04T04:23:11.421Z,1.20
2022-12-04T04:25:40.413Z,1.20
2022-12-04T04:28:03.901Z,1.20
2022-12-04T04:30:30.160Z,1.20
2022-12-04T04:33:01.466Z,1.20
2022-12-04T04:35:32.728Z,1.20
2022-12-04T04:38:04.322Z,1.20
2022-12-04T04:40:36.989Z,1.20
2022-12-04T04:43:08.647Z,1.20
2022-12-04T04:45:38.826Z,1.20
2022-12-04T04:48:09.178Z,1.20
2022-12-04T04:50:34.705Z,1.10
2022-12-04T04:53:04.910Z,1.20
2022-12-04T04:55:34.374Z,1.20
2022-12-04T04:58:08.770Z,1.10
2022-12-04T05:00:32.505Z,1.10
2022-12-04T05:02:56.072Z,1.10
2022-12-04T05:05:21.102Z,1.20
2022-12-04T05:07:44.782Z,1.10
2022-12-04T05:10:10.891Z,1.20
2022-12-04T05:12:34.420Z,1.20
2022-12-04T05:14:57.963Z,1.20
2022-12-04T05:17:21.470Z,1.20
2022-12-04T05:19:57.898Z,1.20
2022-12-04T05:22:27.135Z,1.20
2022-12-04T05:24:50.861Z,1.30
2022-12-04T05:27:14.529Z,1.30
2022-12-04T05:29:38.273Z,1.30
2022-12-04T05:32:01.966Z,1.30
2022-12-04T05:34:25.467Z,1.30
2022-12-04T05:36:49.050Z,1.30
2022-12-04T05:39:14.735Z,1.30
2022-12-04T05:41:38.343Z,1.30
2022-12-04T05:44:01.899Z,1.30
2022-12-04T05:46:25.510Z,1.30
2022-12-04T05:48:49.041Z,1.30
2022-12-04T05:51:13.033Z,1.30
2022-12-04T05:53:36.796Z,1.30
2022-12-04T05:56:04.035Z,1.30
2022-12-04T05:58:28.071Z,1.30
2022-12-04T06:00:51.971Z,1.30
2022-12-04T06:03:15.550Z,1.30
2022-12-04T06:05:39.228Z,1.30
2022-12-04T06:08:02.810Z,1.30
2022-12-04T06:10:26.405Z,1.30
2022-12-04T06:12:51.336Z,1.30
2022-12-04T06:15:14.963Z,1.30
2022-12-04T06:17:38.470Z,1.30
2022-12-04T06:20:06.546Z,1.30
2022-12-04T06:22:33.271Z,1.30
2022-12-04T06:24:56.787Z,1.30
2022-12-04T06:27:28.474Z,1.40
2022-12-04T06:29:54.230Z,1.40
2022-12-04T06:32:21.409Z,1.30
2022-12-04T06:34:45.632Z,1.30
2022-12-04T06:37:09.491Z,1.30
2022-12-04T06:39:33.264Z,1.40
2022-12-04T06:41:56.813Z,1.40
2022-12-04T06:44:20.415Z,1.40
2022-12-04T06:46:47.315Z,1.30
2022-12-04T06:49:12.037Z,1.40
2022-12-04T06:51:38.295Z,1.40
2022-12-04T06:54:02.799Z,1.40
2022-12-04T06:56:28.621Z,1.40
2022-12-04T06:58:55.486Z,1.40
2022-12-04T07:01:22.270Z,1.40
2022-12-04T07:03:51.660Z,1.40
2022-12-04T07:06:17.807Z,1.50
2022-12-04T07:08:41.490Z,1.50
2022-12-04T07:11:05.063Z,1.50
2022-12-04T07:13:28.621Z,1.50
2022-12-04T07:15:52.456Z,1.50
2022-12-04T07:18:16.069Z,1.50
2022-12-04T07:20:43.293Z,1.50
2022-12-04T07:23:07.540Z,1.60
2022-12-04T07:25:31.393Z,1.60
2022-12-04T07:27:55.044Z,1.60
2022-12-04T07:30:19.031Z,1.60
2022-12-04T07:32:42.657Z,1.60
2022-12-04T07:35:07.237Z,1.60
2022-12-04T07:37:32.369Z,1.60
2022-12-04T07:39:56.148Z,1.60
2022-12-04T07:42:24.086Z,1.60
2022-12-04T07:44:48.121Z,1.60
2022-12-04T07:47:11.735Z,1.60
2022-12-04T07:49:35.437Z,1.60
2022-12-04T07:51:59.016Z,1.70
2022-12-04T07:54:23.885Z,1.70
2022-12-04T07:56:47.471Z,1.70
2022-12-04T07:59:11.007Z,1.70
2022-12-04T08:01:34.868Z,1.70
2022-12-04T08:04:00.495Z,1.70
2022-12-04T08:06:26.364Z,1.70
2022-12-04T08:08:50.496Z,1.70
2022-12-04T08:11:18.191Z,1.70
2022-12-04T08:13:41.858Z,1.70
2022-12-04T08:16:07.293Z,1.70
2022-12-04T08:18:30.888Z,1.80
2022-12-04T08:20:54.457Z,1.70
2022-12-04T08:23:17.966Z,1.70
2022-12-04T08:25:42.146Z,1.70
2022-12-04T08:28:07.361Z,1.70
2022-12-04T08:30:31.081Z,1.70
2022-12-04T08:32:54.629Z,1.70
2022-12-04T08:35:18.417Z,1.70
2022-12-04T08:37:41.996Z,1.70
2022-12-04T08:40:06.726Z,1.70
2022-12-04T08:42:30.222Z,1.70
2022-12-04T08:44:55.239Z,1.80
2022-12-04T08:47:18.751Z,1.80
2022-12-04T08:49:42.360Z,1.80
2022-12-04T08:52:06.418Z,1.80
2022-12-04T08:54:35.788Z,1.70
2022-12-04T08:56:59.694Z,1.70
2022-12-04T08:59:23.598Z,1.70
2022-12-04T09:01:51.125Z,1.80
2022-12-04T09:04:14.852Z,1.80
2022-12-04T09:06:38.400Z,1.80
2022-12-04T09:09:01.994Z,1.80
2022-12-04T09:11:28.302Z,1.80
2022-12-04T09:13:52.496Z,1.80
2022-12-04T09:16:19.282Z,1.80
2022-12-04T09:18:44.366Z,1.90
2022-12-04T09:21:11.423Z,1.80
2022-12-04T09:23:36.733Z,1.90
2022-12-04T09:26:00.486Z,1.90
2022-12-04T09:28:24.144Z,1.90
2022-12-04T09:30:57.521Z,1.90
2022-12-04T09:33:21.131Z,1.90
2022-12-04T09:35:46.046Z,1.90
2022-12-04T09:38:09.619Z,1.90
2022-12-04T09:40:42.965Z,1.90
2022-12-04T09:43:19.705Z,1.90
2022-12-04T09:45:51.523Z,1.90
2022-12-04T09:48:19.751Z,1.90
2022-12-04T09:50:46.747Z,1.90
2022-12-04T09:53:15.364Z,1.90
2022-12-04T09:55:45.670Z,1.90
2022-12-04T09:58:15.433Z,1.90
2022-12-04T10:00:46.510Z,1.90
2022-12-04T10:03:17.521Z,2.00
2022-12-04T10:05:56.181Z,2.00
2022-12-04T10:08:25.033Z,2.00
2022-12-04T10:10:58.184Z,2.00
2022-12-04T10:13:44.607Z,2.00
2022-12-04T10:16:17.889Z,2.00
2022-12-04T10:18:50.165Z,2.00
2022-12-04T10:21:43.605Z,2.00
2022-12-04T10:24:28.840Z,2.10
2022-12-04T10:26:56.244Z,2.00
2022-12-04T10:29:24.141Z,2.10
2022-12-04T10:31:50.929Z,2.10
2022-12-04T10:34:20.225Z,2.10
2022-12-04T10:36:52.220Z,2.10
2022-12-04T10:39:21.667Z,2.10
2022-12-04T10:41:52.697Z,2.10
2022-12-04T10:44:18.425Z,2.20
2022-12-04T10:46:46.030Z,2.20
2022-12-04T10:49:21.415Z,2.20
2022-12-04T10:51:47.466Z,2.20
2022-12-04T10:54:21.656Z,2.20
2022-12-04T10:56:53.749Z,2.20
2022-12-04T10:59:17.626Z,2.20
2022-12-04T11:01:41.222Z,2.20
2022-12-04T11:04:10.185Z,2.20
2022-12-04T11:06:34.443Z,2.20
2022-12-04T11:09:00.804Z,2.20
2022-12-04T11:11:30.911Z,2.20
2022-12-04T11:14:04.747Z,2.20
2022-12-04T11:16:38.004Z,2.30
2022-12-04T11:19:01.714Z,2.30
2022-12-04T11:21:30.940Z,2.40
2022-12-04T11:23:55.801Z,2.30
2022-12-04T11:26:33.068Z,2.40
2022-12-04T11:28:59.065Z,2.40
2022-12-04T11:31:24.287Z,2.40
2022-12-04T11:33:53.508Z,2.40
2022-12-04T11:36:25.762Z,2.40
2022-12-04T11:38:50.324Z,2.40
2022-12-04T11:41:26.920Z,2.40
2022-12-04T11:43:54.133Z,2.40
2022-12-04T11:46:24.625Z,2.50
2022-12-04T11:48:48.160Z,2.50
2022-12-04T11:51:23.871Z,2.50
2022-12-04T11:53:55.048Z,2.50
2022-12-04T11:56:31.013Z,2.50
2022-12-04T11:59:22.278Z,2.50
2022-12-04T12:01:56.515Z,2.60
2022-12-04T12:04:56.419Z,2.60
2022-12-04T12:07:35.683Z,2.60
2022-12-04T12:10:04.917Z,2.50
2022-12-04T12:12:43.274Z,2.50
2022-12-04T12:15:19.341Z,2.50
2022-12-04T12:17:50.687Z,2.50
2022-12-04T12:20:21.135Z,2.50
2022-12-04T12:23:18.171Z,2.50
2022-12-04T12:25:52.532Z,2.50
2022-12-04T12:28:37.029Z,2.50
2022-12-04T12:31:20.814Z,2.50
2022-12-04T12:33:50.683Z,2.50
2022-12-04T12:36:16.570Z,2.50
2022-12-04T12:38:47.104Z,2.50
2022-12-04T12:41:15.597Z,2.50
2022-12-04T12:43:44.196Z,2.50
2022-12-04T12:46:14.184Z,2.50
2022-12-04T12:48:47.215Z,2.50
2022-12-04T12:51:30.716Z,2.50
2022-12-04T12:53:58.256Z,2.50
2022-12-04T12:56:33.240Z,2.50
2022-12-04T12:59:02.344Z,2.50
2022-12-04T13:01:39.735Z,2.60
2022-12-04T13:04:11.132Z,2.60
2022-12-04T13:06:44.529Z,2.60
2022-12-04T13:09:18.557Z,2.60
2022-12-04T13:11:43.053Z,2.60
2022-12-04T13:14:08.102Z,2.50
2022-12-04T13:16:38.915Z,2.50
2022-12-04T13:19:11.123Z,2.60
2022-12-04T13:21:39.103Z,2.50
2022-12-04T13:24:56.749Z,2.50
2022-12-04T13:27:33.607Z,2.40
2022-12-04T13:30:15.515Z,2.50
2022-12-04T13:33:27.235Z,2.60
2022-12-04T13:36:23.234Z,2.60
2022-12-04T13:39:18.409Z,2.60
2022-12-04T13:41:42.070Z,2.50
2022-12-04T13:44:15.175Z,2.60
2022-12-04T13:46:43.872Z,2.60
2022-12-04T13:49:26.320Z,2.60
2022-12-04T13:51:51.045Z,2.60
2022-12-04T13:54:28.956Z,2.60
2022-12-04T13:56:55.468Z,2.60
2022-12-04T13:59:34.575Z,2.60
2022-12-04T14:02:06.619Z,2.60
2022-12-04T14:04:36.138Z,2.60
2022-12-04T14:07:02.620Z,2.60
2022-12-04T14:09:30.157Z,2.60
2022-12-04T14:11:59.345Z,2.60
2022-12-04T14:14:30.125Z,2.60
2022-12-04T14:16:54.977Z,2.60
2022-12-04T14:19:33.636Z,2.60
2022-12-04T14:21:57.287Z,2.60
2022-12-04T14:24:35.127Z,2.60
2022-12-04T14:27:14.609Z,2.60
2022-12-04T14:29:49.371Z,2.60
2022-12-04T14:32:18.627Z,2.60
2022-12-04T14:34:43.861Z,2.60
2022-12-04T14:37:08.164Z,2.60
2022-12-04T14:39:35.709Z,2.60
2022-12-04T14:42:09.005Z,2.60
2022-12-04T14:44:33.391Z,2.60
2022-12-04T14:47:00.735Z,2.60
2022-12-04T14:49:38.393Z,2.60
2022-12-04T14:52:12.529Z,2.60
2022-12-04T14:54:45.955Z,2.60
2022-12-04T14:57:25.906Z,2.60
2022-12-04T14:59:51.823Z,2.60
2022-12-04T15:02:20.200Z,2.60
2022-12-04T15:04:46.338Z,2.60
2022-12-04T15:07:11.543Z,2.70
2022-12-04T15:09:52.785Z,2.70
2022-12-04T15:12:37.082Z,2.60
2022-12-04T15:15:06.034Z,2.60
2022-12-04T15:17:29.614Z,2.60
2022-12-04T15:19:53.171Z,2.70
2022-12-04T15:22:24.528Z,2.60
2022-12-04T15:24:48.144Z,2.60
2022-12-04T15:27:14.207Z,2.60
2022-12-04T15:29:48.107Z,2.70
2022-12-04T15:32:13.755Z,2.60
2022-12-04T15:34:43.156Z,2.60
2022-12-04T15:37:09.833Z,2.60
2022-12-04T15:39:38.051Z,2.70
2022-12-04T15:42:17.776Z,2.60
2022-12-04T15:44:41.448Z,2.60
2022-12-04T15:47:20.933Z,2.60
2022-12-04T15:49:44.573Z,2.70
2022-12-04T15:52:15.460Z,2.70
2022-12-04T15:54:44.841Z,2.70
2022-12-04T15:57:20.204Z,2.70
2022-12-04T15:59:51.014Z,2.70
2022-12-04T16:02:27.098Z,2.70
2022-12-04T16:04:50.769Z,2.70
2022-12-04T16:07:23.475Z,2.80
2022-12-04T16:10:03.177Z,2.80
2022-12-04T16:12:30.355Z,2.70
2022-12-04T16:14:55.362Z,2.80
2022-12-04T16:17:19.165Z,2.70
2022-12-04T16:19:43.798Z,2.70
2022-12-04T16:22:14.684Z,2.70
2022-12-04T16:24:39.538Z,2.70
2022-12-04T16:27:17.359Z,2.70
2022-12-04T16:29:40.913Z,2.70
2022-12-04T16:32:04.577Z,2.80
2022-12-04T16:34:28.243Z,2.70
2022-12-04T16:36:51.737Z,2.70
2022-12-04T16:39:15.404Z,2.80
2022-12-04T16:41:38.927Z,2.80
2022-12-04T16:44:04.210Z,2.80
2022-12-04T16:46:30.825Z,2.80
2022-12-04T16:48:54.521Z,2.80
2022-12-04T16:51:21.175Z,2.80
2022-12-04T16:53:44.808Z,2.80
2022-12-04T16:56:10.044Z,2.80
2022-12-04T16:58:33.621Z,2.80
2022-12-04T17:00:58.888Z,2.80
2022-12-04T17:03:27.878Z,2.80
2022-12-04T17:05:51.537Z,2.80
2022-12-04T17:08:15.330Z,2.80
2022-12-04T17:10:38.921Z,2.80
2022-12-04T17:13:02.499Z,2.80
2022-12-04T17:15:26.051Z,2.80
2022-12-04T17:17:51.686Z,2.80
2022-12-04T17:20:17.672Z,2.90
2022-12-04T17:22:41.637Z,2.80
2022-12-04T17:25:06.340Z,2.80
2022-12-04T17:27:29.969Z,2.80
2022-12-04T17:29:53.616Z,2.70
2022-12-04T17:32:17.478Z,2.80
2022-12-04T17:34:42.569Z,2.80
2022-12-04T17:37:06.250Z,2.80
2022-12-04T17:39:29.957Z,2.80
2022-12-04T17:41:53.538Z,2.80
2022-12-04T17:44:17.021Z,2.80
2022-12-04T17:46:40.655Z,2.80
2022-12-04T17:49:07.298Z,2.80
2022-12-04T17:51:32.527Z,2.80
2022-12-04T17:53:56.336Z,2.80
2022-12-04T17:56:22.354Z,2.80
2022-12-04T17:58:47.149Z,2.80
2022-12-04T18:01:13.659Z,2.80
2022-12-04T18:03:38.372Z,2.80
2022-12-04T18:06:02.299Z,2.80
2022-12-04T18:08:28.911Z,2.80
2022-12-04T18:10:52.532Z,2.80
2022-12-04T18:13:16.056Z,2.80
2022-12-04T18:15:39.650Z,2.80
2022-12-04T18:18:03.221Z,2.80
2022-12-04T18:20:26.828Z,2.80
2022-12-04T18:22:50.348Z,2.90
2022-12-04T18:25:15.311Z,2.90
2022-12-04T18:27:41.837Z,2.90
2022-12-04T18:30:07.363Z,2.90
2022-12-04T18:32:30.863Z,2.90
2022-12-04T18:34:54.772Z,2.80
2022-12-04T18:37:18.433Z,2.90
2022-12-04T18:39:42.197Z,2.80
2022-12-04T18:42:07.499Z,2.90
2022-12-04T18:44:31.220Z,2.80
2022-12-04T18:46:54.795Z,2.90
2022-12-04T18:49:18.395Z,2.90
2022-12-04T18:51:48.902Z,2.90
2022-12-04T18:54:15.682Z,2.90
2022-12-04T18:56:39.725Z,2.90
2022-12-04T18:59:08.723Z,2.90
2022-12-04T19:01:32.339Z,3.00
2022-12-04T19:03:58.433Z,2.90
2022-12-04T19:06:22.072Z,2.90
2022-12-04T19:08:45.783Z,2.90
2022-12-04T19:11:11.625Z,2.90
2022-12-04T19:13:37.181Z,3.00
2022-12-04T19:16:02.207Z,2.90
2022-12-04T19:18:25.805Z,2.90
2022-12-04T19:20:49.501Z,2.90
2022-12-04T19:23:13.229Z,2.90
2022-12-04T19:25:36.841Z,2.90
2022-12-04T19:28:02.980Z,3.00
2022-12-04T19:30:26.941Z,3.00
2022-12-04T19:32:52.097Z,3.00
2022-12-04T19:35:15.844Z,3.00
2022-12-04T19:37:41.907Z,3.00
2022-12-04T19:40:07.703Z,3.10
2022-12-04T19:42:31.987Z,3.10
2022-12-04T19:44:55.515Z,3.00
2022-12-04T19:47:20.042Z,3.00
2022-12-04T19:49:44.986Z,3.00
2022-12-04T19:52:08.531Z,3.00
2022-12-04T19:54:32.342Z,3.00
2022-12-04T19:56:55.937Z,3.00
2022-12-04T19:59:20.888Z,3.00
2022-12-04T20:01:44.862Z,3.00
2022-12-04T20:04:10.108Z,3.10
2022-12-04T20:06:41.814Z,3.10
2022-12-04T20:09:08.822Z,3.10
2022-12-04T20:11:33.261Z,3.10
2022-12-04T20:13:58.114Z,3.20
2022-12-04T20:16:23.108Z,3.20
2022-12-04T20:18:47.184Z,3.20
2022-12-04T20:21:12.076Z,3.20
2022-12-04T20:23:37.070Z,3.20
2022-12-04T20:26:06.603Z,3.20
2022-12-04T20:28:30.192Z,3.20
2022-12-04T20:30:54.449Z,3.20
2022-12-04T20:33:18.290Z,3.20
2022-12-04T20:35:41.847Z,3.20
2022-12-04T20:38:06.176Z,3.20
2022-12-04T20:40:31.223Z,3.20
2022-12-04T20:42:54.859Z,3.20
2022-12-04T20:45:18.558Z,3.20
2022-12-04T20:47:42.180Z,3.20
2022-12-04T20:50:06.603Z,3.30
2022-12-04T20:52:30.193Z,3.20
2022-12-04T20:54:53.694Z,3.20
2022-12-04T20:57:18.697Z,3.30
2022-12-04T20:59:42.237Z,3.30
2022-12-04T21:02:06.020Z,3.30
2022-12-04T21:04:29.661Z,3.30
2022-12-04T21:06:53.368Z,3.30
2022-12-04T21:09:20.496Z,3.30
2022-12-04T21:11:46.937Z,3.40
2022-12-04T21:14:33.344Z,3.30
2022-12-04T21:16:57.288Z,3.30
2022-12-04T21:19:23.702Z,3.40
2022-12-04T21:21:47.983Z,3.40
2022-12-04T21:24:14.234Z,3.40
2022-12-04T21:26:38.117Z,3.40
2022-12-04T21:29:03.019Z,3.40
2022-12-04T21:31:29.205Z,3.40
2022-12-04T21:33:52.798Z,3.40
2022-12-04T21:36:16.401Z,3.40
2022-12-04T21:38:41.456Z,3.40
2022-12-04T21:41:07.157Z,3.40
2022-12-04T21:43:32.754Z,3.40
2022-12-04T21:46:07.453Z,3.40
2022-12-04T21:48:35.613Z,3.40
2022-12-04T21:50:59.312Z,3.50
2022-12-04T21:53:23.496Z,3.50
2022-12-04T21:55:49.535Z,3.40
2022-12-04T21:58:13.212Z,3.40
2022-12-04T22:00:36.837Z,3.40
2022-12-04T22:03:00.546Z,3.40
2022-12-04T22:05:25.567Z,3.40
2022-12-04T22:07:49.204Z,3.50
2022-12-04T22:10:12.776Z,3.40
2022-12-04T22:12:52.376Z,3.40
2022-12-04T22:15:16.063Z,3.40
2022-12-04T22:17:39.623Z,3.50
2022-12-04T22:20:03.351Z,3.50
2022-12-04T22:22:28.330Z,3.50
2022-12-04T22:24:51.949Z,3.50
2022-12-04T22:27:15.915Z,3.40
2022-12-04T22:29:50.139Z,3.50
2022-12-04T22:32:14.360Z,3.50
2022-12-04T22:34:37.847Z,3.50
2022-12-04T22:37:01.406Z,3.50
2022-12-04T22:39:26.553Z,3.50
2022-12-04T22:41:50.145Z,3.50
2022-12-04T22:44:13.651Z,3.50
2022-12-04T22:46:37.275Z,3.50
2022-12-04T22:49:01.554Z,3.50
2022-12-04T22:51:25.191Z,3.50
2022-12-04T22:53:50.778Z,3.50
2022-12-04T22:56:18.234Z,3.50
2022-12-04T22:58:42.117Z,3.50
2022-12-04T23:01:11.672Z,3.40
2022-12-04T23:03:35.647Z,3.40
2022-12-04T23:06:02.128Z,3.40
2022-12-04T23:08:25.754Z,3.40
2022-12-04T23:10:49.309Z,3.40
2022-12-04T23:13:14.403Z,3.40
2022-12-04T23:15:39.042Z,3.40
2022-12-04T23:18:02.536Z,3.40
2022-12-04T23:20:26.227Z,3.50
2022-12-04T23:22:54.657Z,3.50
2022-12-04T23:25:18.464Z,3.50
2022-12-04T23:27:42.007Z,3.50
2022-12-04T23:30:09.388Z,3.50
2022-12-04T23:32:33.158Z,3.50
2022-12-04T23:34:56.788Z,3.50
2022-12-04T23:37:20.709Z,3.50
2022-12-04T23:39:44.282Z,3.60
2022-12-04T23:42:07.933Z,3.50
2022-12-04T23:44:31.701Z,3.60
2022-12-04T23:46:56.669Z,3.50
2022-12-04T23:49:20.320Z,3.60
2022-12-04T23:51:43.803Z,3.50
2022-12-04T23:54:07.723Z,3.50
2022-12-04T23:56:32.526Z,3.60
2022-12-04T23:58:58.548Z,3.50
